sensor_id;sensor_type;location;lat;lon;timestamp;pressure;altitude;pressure_sealevel;temperature;humidity
37848;BME280;23688;33.130;-117.188;2023-02-15T00:01:12;98999.88;;;9.71;100.00
37848;BME280;23688;33.130;-117.188;2023-02-15T00:03:38;99003.84;;;9.61;100.00
37848;BME280;23688;33.130;-117.188;2023-02-15T00:06:05;98993.94;;;9.51;100.00
37848;BME280;23688;33.130;-117.188;2023-02-15T00:08:31;98982.00;;;9.54;100.00
37848;BME280;23688;33.130;-117.188;2023-02-15T00:11:05;98976.75;;;9.53;100.00
37848;BME280;23688;33.130;-117.188;2023-02-15T00:13:32;98980.78;;;9.45;100.00
37848;BME280;23688;33.130;-117.188;2023-02-15T00:16:12;98972.16;;;9.46;100.00
37848;BME280;23688;33.130;-117.188;2023-02-15T00:18:39;98974.81;;;9.47;100.00
37848;BME280;23688;33.130;-117.188;2023-02-15T00:21:07;98974.66;;;9.42;100.00
37848;BME280;23688;33.130;-117.188;2023-02-15T00:23:34;98970.16;;;9.38;100.00
37848;BME280;23688;33.130;-117.188;2023-02-15T00:26:09;98976.13;;;9.36;100.00
37848;BME280;23688;33.130;-117.188;2023-02-15T00:28:36;98989.81;;;9.56;100.00
37848;BME280;23688;33.130;-117.188;2023-02-15T00:31:10;98998.41;;;9.55;100.00
37848;BME280;23688;33.130;-117.188;2023-02-15T00:33:38;98993.53;;;9.62;100.00
37848;BME280;23688;33.130;-117.188;2023-02-15T00:36:06;98994.78;;;9.50;100.00
37848;BME280;23688;33.130;-117.188;2023-02-15T00:38:33;99002.16;;;9.39;100.00
37848;BME280;23688;33.130;-117.188;2023-02-15T00:41:02;98983.72;;;9.31;100.00
37848;BME280;23688;33.130;-117.188;2023-02-15T00:43:29;99001.06;;;9.34;100.00
37848;BME280;23688;33.130;-117.188;2023-02-15T00:45:56;98992.97;;;9.25;100.00
37848;BME280;23688;33.130;-117.188;2023-02-15T00:48:23;98990.69;;;9.10;100.00
37848;BME280;23688;33.130;-117.188;2023-02-15T00:50:54;98976.06;;;9.12;100.00
37848;BME280;23688;33.130;-117.188;2023-02-15T00:53:22;98987.72;;;9.23;100.00
37848;BME280;23688;33.130;-117.188;2023-02-15T00:55:49;98976.38;;;9.19;100.00
37848;BME280;23688;33.130;-117.188;2023-02-15T00:58:16;98987.19;;;9.09;100.00
37848;BME280;23688;33.130;-117.188;2023-02-15T01:00:44;98977.19;;;8.96;100.00
37848;BME280;23688;33.130;-117.188;2023-02-15T01:03:12;98953.69;;;8.91;100.00
37848;BME280;23688;33.130;-117.188;2023-02-15T01:05:39;98977.38;;;9.00;100.00
37848;BME280;23688;33.130;-117.188;2023-02-15T01:08:06;98974.31;;;9.11;100.00
37848;BME280;23688;33.130;-117.188;2023-02-15T01:10:34;98981.09;;;9.07;100.00
37848;BME280;23688;33.130;-117.188;2023-02-15T01:13:00;98976.97;;;9.12;100.00
37848;BME280;23688;33.130;-117.188;2023-02-15T01:15:27;98984.66;;;9.11;100.00
37848;BME280;23688;33.130;-117.188;2023-02-15T01:17:53;98996.09;;;9.16;100.00
37848;BME280;23688;33.130;-117.188;2023-02-15T01:20:25;98978.81;;;9.16;100.00
37848;BME280;23688;33.130;-117.188;2023-02-15T01:22:52;98989.66;;;9.06;100.00
37848;BME280;23688;33.130;-117.188;2023-02-15T01:25:20;98996.09;;;9.16;100.00
37848;BME280;23688;33.130;-117.188;2023-02-15T01:27:47;98992.25;;;9.06;100.00
37848;BME280;23688;33.130;-117.188;2023-02-15T01:30:15;98993.13;;;9.07;100.00
37848;BME280;23688;33.130;-117.188;2023-02-15T01:32:42;98987.38;;;9.14;100.00
37848;BME280;23688;33.130;-117.188;2023-02-15T01:35:09;98957.59;;;9.25;100.00
37848;BME280;23688;33.130;-117.188;2023-02-15T01:37:36;98956.66;;;9.23;100.00
37848;BME280;23688;33.130;-117.188;2023-02-15T01:40:07;98950.22;;;9.13;100.00
37848;BME280;23688;33.130;-117.188;2023-02-15T01:42:34;98976.59;;;9.26;100.00
37848;BME280;23688;33.130;-117.188;2023-02-15T01:45:10;98963.47;;;9.21;100.00
37848;BME280;23688;33.130;-117.188;2023-02-15T01:48:24;98971.63;;;8.87;100.00
37848;BME280;23688;33.130;-117.188;2023-02-15T01:50:56;98963.41;;;8.97;100.00
37848;BME280;23688;33.130;-117.188;2023-02-15T01:53:31;98965.56;;;9.07;100.00
37848;BME280;23688;33.130;-117.188;2023-02-15T01:56:02;98968.44;;;9.15;100.00
37848;BME280;23688;33.130;-117.188;2023-02-15T01:58:32;98950.06;;;9.09;100.00
37848;BME280;23688;33.130;-117.188;2023-02-15T02:01:00;98960.53;;;9.12;100.00
37848;BME280;23688;33.130;-117.188;2023-02-15T02:03:42;98950.53;;;8.98;100.00
37848;BME280;23688;33.130;-117.188;2023-02-15T02:06:10;98954.66;;;8.93;100.00
37848;BME280;23688;33.130;-117.188;2023-02-15T02:08:37;98943.63;;;8.99;100.00
37848;BME280;23688;33.130;-117.188;2023-02-15T02:11:15;98961.34;;;9.11;100.00
37848;BME280;23688;33.130;-117.188;2023-02-15T02:13:43;98969.50;;;8.97;100.00
37848;BME280;23688;33.130;-117.188;2023-02-15T02:16:14;98977.47;;;9.04;100.00
37848;BME280;23688;33.130;-117.188;2023-02-15T02:24:38;98969.06;;;8.87;100.00
37848;BME280;23688;33.130;-117.188;2023-02-15T02:27:23;98976.81;;;8.87;100.00
37848;BME280;23688;33.130;-117.188;2023-02-15T02:38:01;98979.97;;;9.00;100.00
37848;BME280;23688;33.130;-117.188;2023-02-15T02:43:11;98981.59;;;8.98;100.00
37848;BME280;23688;33.130;-117.188;2023-02-15T02:45:56;98984.94;;;8.96;100.00
37848;BME280;23688;33.130;-117.188;2023-02-15T02:48:26;98986.66;;;8.95;100.00
37848;BME280;23688;33.130;-117.188;2023-02-15T02:50:53;98983.25;;;8.96;100.00
37848;BME280;23688;33.130;-117.188;2023-02-15T02:53:20;98982.53;;;9.00;100.00
37848;BME280;23688;33.130;-117.188;2023-02-15T02:58:21;98985.63;;;9.13;100.00
37848;BME280;23688;33.130;-117.188;2023-02-15T03:00:52;98984.59;;;9.09;100.00
37848;BME280;23688;33.130;-117.188;2023-02-15T03:05:54;98969.31;;;8.93;100.00
37848;BME280;23688;33.130;-117.188;2023-02-15T03:08:25;98986.69;;;8.74;100.00
37848;BME280;23688;33.130;-117.188;2023-02-15T03:10:56;98981.09;;;8.64;100.00
37848;BME280;23688;33.130;-117.188;2023-02-15T03:13:24;98964.22;;;8.52;100.00
37848;BME280;23688;33.130;-117.188;2023-02-15T03:15:52;98950.22;;;8.47;100.00
37848;BME280;23688;33.130;-117.188;2023-02-15T03:18:48;98956.38;;;8.51;100.00
37848;BME280;23688;33.130;-117.188;2023-02-15T03:21:27;98976.53;;;8.58;100.00
37848;BME280;23688;33.130;-117.188;2023-02-15T03:24:13;98987.78;;;8.59;100.00
37848;BME280;23688;33.130;-117.188;2023-02-15T03:26:45;98991.47;;;8.65;100.00
37848;BME280;23688;33.130;-117.188;2023-02-15T03:29:13;98978.69;;;8.68;100.00
37848;BME280;23688;33.130;-117.188;2023-02-15T03:31:43;98984.53;;;8.85;100.00
37848;BME280;23688;33.130;-117.188;2023-02-15T03:34:13;98990.06;;;8.94;100.00
37848;BME280;23688;33.130;-117.188;2023-02-15T03:37:10;98999.91;;;9.03;100.00
37848;BME280;23688;33.130;-117.188;2023-02-15T03:39:54;98997.31;;;9.03;100.00
37848;BME280;23688;33.130;-117.188;2023-02-15T03:44:59;99004.88;;;9.19;100.00
37848;BME280;23688;33.130;-117.188;2023-02-15T03:47:39;99035.72;;;9.58;100.00
37848;BME280;23688;33.130;-117.188;2023-02-15T03:50:15;99027.03;;;9.80;100.00
37848;BME280;23688;33.130;-117.188;2023-02-15T03:53:05;98964.47;;;9.71;100.00
37848;BME280;23688;33.130;-117.188;2023-02-15T03:55:34;98964.38;;;9.46;100.00
37848;BME280;23688;33.130;-117.188;2023-02-15T03:58:00;98986.72;;;9.42;100.00
37848;BME280;23688;33.130;-117.188;2023-02-15T04:00:51;98984.16;;;9.43;100.00
37848;BME280;23688;33.130;-117.188;2023-02-15T04:04:00;98989.03;;;9.34;100.00
37848;BME280;23688;33.130;-117.188;2023-02-15T04:06:29;98993.38;;;9.35;100.00
37848;BME280;23688;33.130;-117.188;2023-02-15T04:08:55;98988.84;;;9.30;100.00
37848;BME280;23688;33.130;-117.188;2023-02-15T04:11:40;99001.03;;;9.32;100.00
37848;BME280;23688;33.130;-117.188;2023-02-15T04:14:06;98998.56;;;9.35;100.00
37848;BME280;23688;33.130;-117.188;2023-02-15T04:16:50;98998.47;;;9.34;100.00
37848;BME280;23688;33.130;-117.188;2023-02-15T04:19:17;99010.63;;;9.35;100.00
37848;BME280;23688;33.130;-117.188;2023-02-15T04:22:02;99005.38;;;9.33;100.00
37848;BME280;23688;33.130;-117.188;2023-02-15T04:24:47;98990.31;;;9.23;100.00
37848;BME280;23688;33.130;-117.188;2023-02-15T04:27:31;98998.09;;;9.23;100.00
37848;BME280;23688;33.130;-117.188;2023-02-15T04:29:57;99012.94;;;9.27;100.00
37848;BME280;23688;33.130;-117.188;2023-02-15T04:32:24;99021.41;;;9.23;100.00
37848;BME280;23688;33.130;-117.188;2023-02-15T04:34:50;99008.84;;;9.11;100.00
37848;BME280;23688;33.130;-117.188;2023-02-15T04:37:16;99008.91;;;9.13;100.00
37848;BME280;23688;33.130;-117.188;2023-02-15T04:39:43;98989.72;;;8.85;100.00
37848;BME280;23688;33.130;-117.188;2023-02-15T04:42:09;98994.75;;;8.82;100.00
37848;BME280;23688;33.130;-117.188;2023-02-15T04:44:35;99023.59;;;8.91;100.00
37848;BME280;23688;33.130;-117.188;2023-02-15T04:47:02;99044.44;;;8.94;100.00
37848;BME280;23688;33.130;-117.188;2023-02-15T04:49:28;99051.13;;;8.89;100.00
37848;BME280;23688;33.130;-117.188;2023-02-15T04:51:54;99015.03;;;8.71;100.00
37848;BME280;23688;33.130;-117.188;2023-02-15T04:54:20;99024.75;;;8.77;100.00
37848;BME280;23688;33.130;-117.188;2023-02-15T04:56:47;99024.44;;;8.69;100.00
37848;BME280;23688;33.130;-117.188;2023-02-15T04:59:13;99039.06;;;8.48;100.00
37848;BME280;23688;33.130;-117.188;2023-02-15T05:01:40;99045.59;;;8.59;100.00
37848;BME280;23688;33.130;-117.188;2023-02-15T05:04:06;99039.97;;;8.69;100.00
37848;BME280;23688;33.130;-117.188;2023-02-15T05:06:32;99047.59;;;8.87;100.00
37848;BME280;23688;33.130;-117.188;2023-02-15T05:08:58;99046.06;;;8.92;100.00
37848;BME280;23688;33.130;-117.188;2023-02-15T05:11:26;99044.38;;;8.93;100.00
37848;BME280;23688;33.130;-117.188;2023-02-15T05:13:52;99047.00;;;8.94;100.00
37848;BME280;23688;33.130;-117.188;2023-02-15T05:16:18;99035.41;;;8.85;100.00
37848;BME280;23688;33.130;-117.188;2023-02-15T05:18:44;99059.28;;;8.98;100.00
37848;BME280;23688;33.130;-117.188;2023-02-15T05:21:11;99060.88;;;8.95;100.00
37848;BME280;23688;33.130;-117.188;2023-02-15T05:23:40;99062.50;;;8.93;100.00
37848;BME280;23688;33.130;-117.188;2023-02-15T05:26:07;99043.06;;;8.82;100.00
37848;BME280;23688;33.130;-117.188;2023-02-15T05:28:53;99056.09;;;8.85;100.00
37848;BME280;23688;33.130;-117.188;2023-02-15T05:31:19;99071.91;;;8.91;100.00
37848;BME280;23688;33.130;-117.188;2023-02-15T05:33:46;99080.44;;;8.88;100.00
37848;BME280;23688;33.130;-117.188;2023-02-15T05:36:12;99078.72;;;8.89;100.00
37848;BME280;23688;33.130;-117.188;2023-02-15T05:38:39;99078.66;;;8.87;100.00
37848;BME280;23688;33.130;-117.188;2023-02-15T05:41:06;99075.72;;;8.78;100.00
37848;BME280;23688;33.130;-117.188;2023-02-15T05:43:34;99091.34;;;8.81;100.00
37848;BME280;23688;33.130;-117.188;2023-02-15T05:46:01;99092.00;;;8.75;100.00
37848;BME280;23688;33.130;-117.188;2023-02-15T05:48:28;99106.63;;;8.75;100.00
37848;BME280;23688;33.130;-117.188;2023-02-15T05:51:01;99099.59;;;8.72;100.00
37848;BME280;23688;33.130;-117.188;2023-02-15T05:53:29;99099.41;;;8.68;100.00
37848;BME280;23688;33.130;-117.188;2023-02-15T05:55:56;99097.44;;;8.62;100.00
37848;BME280;23688;33.130;-117.188;2023-02-15T05:58:26;99102.44;;;8.57;100.00
37848;BME280;23688;33.130;-117.188;2023-02-15T06:00:54;99108.16;;;8.50;100.00
37848;BME280;23688;33.130;-117.188;2023-02-15T06:03:21;99104.63;;;8.48;100.00
37848;BME280;23688;33.130;-117.188;2023-02-15T06:05:48;99111.28;;;8.43;100.00
37848;BME280;23688;33.130;-117.188;2023-02-15T06:08:14;99129.88;;;8.34;100.00
37848;BME280;23688;33.130;-117.188;2023-02-15T06:10:41;99112.50;;;8.32;100.00
37848;BME280;23688;33.130;-117.188;2023-02-15T06:13:07;99112.09;;;8.23;100.00
37848;BME280;23688;33.130;-117.188;2023-02-15T06:15:34;99128.78;;;8.29;100.00
37848;BME280;23688;33.130;-117.188;2023-02-15T06:18:00;99135.63;;;8.29;100.00
37848;BME280;23688;33.130;-117.188;2023-02-15T06:20:26;99130.19;;;8.23;100.00
37848;BME280;23688;33.130;-117.188;2023-02-15T06:22:52;99165.63;;;8.06;100.00
37848;BME280;23688;33.130;-117.188;2023-02-15T06:25:19;99155.16;;;8.03;100.00
37848;BME280;23688;33.130;-117.188;2023-02-15T06:27:45;99160.69;;;8.10;100.00
37848;BME280;23688;33.130;-117.188;2023-02-15T06:30:12;99162.44;;;8.11;100.00
37848;BME280;23688;33.130;-117.188;2023-02-15T06:32:38;99164.63;;;8.22;100.00
37848;BME280;23688;33.130;-117.188;2023-02-15T06:35:06;99158.56;;;8.21;100.00
37848;BME280;23688;33.130;-117.188;2023-02-15T06:37:32;99148.22;;;8.21;100.00
37848;BME280;23688;33.130;-117.188;2023-02-15T06:39:59;99156.38;;;8.11;100.00
37848;BME280;23688;33.130;-117.188;2023-02-15T06:42:25;99160.69;;;8.10;100.00
37848;BME280;23688;33.130;-117.188;2023-02-15T06:44:51;99167.56;;;8.10;100.00
37848;BME280;23688;33.130;-117.188;2023-02-15T06:47:18;99168.00;;;8.01;100.00
37848;BME280;23688;33.130;-117.188;2023-02-15T06:49:44;99186.44;;;8.09;100.00
37848;BME280;23688;33.130;-117.188;2023-02-15T06:52:10;99192.97;;;8.01;100.00
37848;BME280;23688;33.130;-117.188;2023-02-15T06:54:37;99186.25;;;8.04;100.00
37848;BME280;23688;33.130;-117.188;2023-02-15T06:57:03;99194.06;;;8.06;100.00
37848;BME280;23688;33.130;-117.188;2023-02-15T06:59:30;99200.44;;;8.12;100.00
37848;BME280;23688;33.130;-117.188;2023-02-15T07:01:56;99197.63;;;8.08;100.00
37848;BME280;23688;33.130;-117.188;2023-02-15T07:04:22;99198.13;;;7.63;100.00
37848;BME280;23688;33.130;-117.188;2023-02-15T07:06:49;99192.47;;;7.36;100.00
37848;BME280;23688;33.130;-117.188;2023-02-15T07:09:15;99192.47;;;7.36;100.00
37848;BME280;23688;33.130;-117.188;2023-02-15T07:11:45;99207.44;;;7.07;100.00
37848;BME280;23688;33.130;-117.188;2023-02-15T07:14:29;99198.78;;;7.07;100.00
37848;BME280;23688;33.130;-117.188;2023-02-15T07:16:55;99199.63;;;6.90;100.00
37848;BME280;23688;33.130;-117.188;2023-02-15T07:19:25;99210.19;;;6.94;100.00
37848;BME280;23688;33.130;-117.188;2023-02-15T07:21:51;99199.81;;;6.93;100.00
37848;BME280;23688;33.130;-117.188;2023-02-15T07:24:17;99220.56;;;7.12;100.00
37848;BME280;23688;33.130;-117.188;2023-02-15T07:26:44;99212.47;;;7.22;100.00
37848;BME280;23688;33.130;-117.188;2023-02-15T07:29:10;99211.97;;;7.29;100.00
37848;BME280;23688;33.130;-117.188;2023-02-15T07:31:36;99206.94;;;7.33;100.00
37848;BME280;23688;33.130;-117.188;2023-02-15T07:34:03;99218.09;;;7.32;100.00
37848;BME280;23688;33.130;-117.188;2023-02-15T07:36:31;99222.91;;;7.42;100.00
37848;BME280;23688;33.130;-117.188;2023-02-15T07:38:58;99216.91;;;7.25;100.00
37848;BME280;23688;33.130;-117.188;2023-02-15T07:41:24;99208.94;;;7.20;100.00
37848;BME280;23688;33.130;-117.188;2023-02-15T07:43:50;99214.56;;;7.29;100.00
37848;BME280;23688;33.130;-117.188;2023-02-15T07:46:16;99251.69;;;7.49;100.00
37848;BME280;23688;33.130;-117.188;2023-02-15T07:48:44;99231.81;;;7.48;100.00
37848;BME280;23688;33.130;-117.188;2023-02-15T07:51:11;99258.34;;;7.62;100.00
37848;BME280;23688;33.130;-117.188;2023-02-15T07:53:39;99254.78;;;7.60;100.00
37848;BME280;23688;33.130;-117.188;2023-02-15T07:56:09;99265.13;;;7.60;100.00
37848;BME280;23688;33.130;-117.188;2023-02-15T07:58:35;99278.03;;;7.60;100.00
37848;BME280;23688;33.130;-117.188;2023-02-15T08:01:38;99281.06;;;7.52;100.00
37848;BME280;23688;33.130;-117.188;2023-02-15T08:04:07;99277.16;;;7.42;100.00
37848;BME280;23688;33.130;-117.188;2023-02-15T08:06:37;99282.47;;;7.28;100.00
37848;BME280;23688;33.130;-117.188;2023-02-15T08:09:06;99273.31;;;7.17;100.00
37848;BME280;23688;33.130;-117.188;2023-02-15T08:11:34;99262.13;;;7.00;100.00
37848;BME280;23688;33.130;-117.188;2023-02-15T08:14:12;99294.09;;;7.02;100.00
37848;BME280;23688;33.130;-117.188;2023-02-15T08:16:50;99283.19;;;6.92;100.00
37848;BME280;23688;33.130;-117.188;2023-02-15T08:21:47;99266.81;;;6.75;100.00
37848;BME280;23688;33.130;-117.188;2023-02-15T08:24:15;99300.13;;;6.86;100.00
37848;BME280;23688;33.130;-117.188;2023-02-15T08:26:42;99289.41;;;6.79;100.00
37848;BME280;23688;33.130;-117.188;2023-02-15T08:29:10;99287.44;;;6.75;100.00
37848;BME280;23688;33.130;-117.188;2023-02-15T08:31:37;99303.53;;;6.85;100.00
37848;BME280;23688;33.130;-117.188;2023-02-15T08:34:04;99285.28;;;6.82;100.00
37848;BME280;23688;33.130;-117.188;2023-02-15T08:36:31;99290.63;;;6.85;100.00
37848;BME280;23688;33.130;-117.188;2023-02-15T08:38:59;99293.50;;;6.92;100.00
37848;BME280;23688;33.130;-117.188;2023-02-15T08:41:28;99304.66;;;6.91;100.00
37848;BME280;23688;33.130;-117.188;2023-02-15T08:43:57;99285.34;;;6.68;100.00
37848;BME280;23688;33.130;-117.188;2023-02-15T08:46:26;99312.13;;;6.86;100.00
37848;BME280;23688;33.130;-117.188;2023-02-15T08:48:53;99307.59;;;6.82;100.00
37848;BME280;23688;33.130;-117.188;2023-02-15T08:51:25;99311.16;;;6.84;100.00
37848;BME280;23688;33.130;-117.188;2023-02-15T08:53:53;99309.72;;;6.89;100.00
37848;BME280;23688;33.130;-117.188;2023-02-15T08:56:26;99296.66;;;6.86;100.00
37848;BME280;23688;33.130;-117.188;2023-02-15T08:58:53;99305.28;;;6.86;100.00
37848;BME280;23688;33.130;-117.188;2023-02-15T09:01:31;99311.41;;;6.89;100.00
37848;BME280;23688;33.130;-117.188;2023-02-15T09:04:08;99310.53;;;6.88;100.00
37848;BME280;23688;33.130;-117.188;2023-02-15T09:06:36;99322.78;;;6.92;100.00
37848;BME280;23688;33.130;-117.188;2023-02-15T09:09:04;99318.03;;;6.83;100.00
37848;BME280;23688;33.130;-117.188;2023-02-15T09:11:34;99324.63;;;6.78;100.00
37848;BME280;23688;33.130;-117.188;2023-02-15T09:14:05;99316.16;;;6.64;100.00
37848;BME280;23688;33.130;-117.188;2023-02-15T09:16:35;99332.25;;;6.60;100.00
37848;BME280;23688;33.130;-117.188;2023-02-15T09:19:04;99329.09;;;6.50;99.81
37848;BME280;23688;33.130;-117.188;2023-02-15T09:21:35;99324.75;;;6.49;99.95
37848;BME280;23688;33.130;-117.188;2023-02-15T09:24:05;99323.53;;;6.42;100.00
37848;BME280;23688;33.130;-117.188;2023-02-15T09:26:34;99310.38;;;6.37;100.00
37848;BME280;23688;33.130;-117.188;2023-02-15T09:29:01;99320.28;;;6.30;100.00
37848;BME280;23688;33.130;-117.188;2023-02-15T09:31:40;99335.22;;;6.20;100.00
37848;BME280;23688;33.130;-117.188;2023-02-15T09:34:11;99327.84;;;6.12;100.00
37848;BME280;23688;33.130;-117.188;2023-02-15T09:36:39;99334.66;;;6.10;100.00
37848;BME280;23688;33.130;-117.188;2023-02-15T09:39:20;99333.56;;;6.06;100.00
37848;BME280;23688;33.130;-117.188;2023-02-15T09:48:07;99342.91;;;6.04;100.00
37848;BME280;23688;33.130;-117.188;2023-02-15T09:51:00;99349.31;;;5.96;100.00
37848;BME280;23688;33.130;-117.188;2023-02-15T09:53:41;99355.94;;;5.92;100.00
37848;BME280;23688;33.130;-117.188;2023-02-15T09:56:19;99357.28;;;5.86;100.00
37848;BME280;23688;33.130;-117.188;2023-02-15T09:59:04;99345.31;;;5.71;100.00
37848;BME280;23688;33.130;-117.188;2023-02-15T10:01:55;99368.66;;;5.74;100.00
37848;BME280;23688;33.130;-117.188;2023-02-15T10:04:54;99368.31;;;5.68;100.00
37848;BME280;23688;33.130;-117.188;2023-02-15T10:13:11;99370.31;;;5.44;100.00
37848;BME280;23688;33.130;-117.188;2023-02-15T10:16:00;99376.19;;;5.42;100.00
37848;BME280;23688;33.130;-117.188;2023-02-15T10:21:38;99357.94;;;5.24;100.00
37848;BME280;23688;33.130;-117.188;2023-02-15T10:27:01;99382.00;;;5.24;100.00
37848;BME280;23688;33.130;-117.188;2023-02-15T10:29:38;99371.94;;;5.14;100.00
37848;BME280;23688;33.130;-117.188;2023-02-15T10:32:25;99388.53;;;5.19;99.14
37848;BME280;23688;33.130;-117.188;2023-02-15T10:40:40;99403.94;;;5.04;98.87
37848;BME280;23688;33.130;-117.188;2023-02-15T10:54:16;99407.56;;;4.93;95.35
37848;BME280;23688;33.130;-117.188;2023-02-15T10:59:54;99405.56;;;4.89;94.39
37848;BME280;23688;33.130;-117.188;2023-02-15T11:05:40;99421.81;;;4.88;93.79
37848;BME280;23688;33.130;-117.188;2023-02-15T11:08:10;99419.81;;;4.84;93.86
37848;BME280;23688;33.130;-117.188;2023-02-15T11:11:03;99422.81;;;4.77;94.14
37848;BME280;23688;33.130;-117.188;2023-02-15T11:13:44;99404.16;;;4.66;93.46
37848;BME280;23688;33.130;-117.188;2023-02-15T11:16:14;99448.75;;;4.66;94.34
37848;BME280;23688;33.130;-117.188;2023-02-15T11:18:57;99441.63;;;4.62;94.48
37848;BME280;23688;33.130;-117.188;2023-02-15T11:21:37;99447.06;;;4.54;93.99
37848;BME280;23688;33.130;-117.188;2023-02-15T11:24:11;99425.69;;;4.41;93.38
37848;BME280;23688;33.130;-117.188;2023-02-15T11:26:44;99438.47;;;4.40;93.10
37848;BME280;23688;33.130;-117.188;2023-02-15T11:31:54;99429.56;;;4.35;89.95
37848;BME280;23688;33.130;-117.188;2023-02-15T11:34:29;99446.56;;;4.46;88.70
37848;BME280;23688;33.130;-117.188;2023-02-15T11:37:01;99449.53;;;4.39;89.33
37848;BME280;23688;33.130;-117.188;2023-02-15T11:39:31;99441.63;;;4.36;88.20
37848;BME280;23688;33.130;-117.188;2023-02-15T11:42:15;99445.28;;;4.39;88.39
37848;BME280;23688;33.130;-117.188;2023-02-15T11:45:27;99456.03;;;4.34;85.36
37848;BME280;23688;33.130;-117.188;2023-02-15T11:47:54;99457.84;;;4.35;83.49
37848;BME280;23688;33.130;-117.188;2023-02-15T11:50:29;99452.00;;;4.37;84.27
37848;BME280;23688;33.130;-117.188;2023-02-15T11:53:02;99454.88;;;4.42;82.48
37848;BME280;23688;33.130;-117.188;2023-02-15T11:55:30;99454.38;;;4.47;84.42
37848;BME280;23688;33.130;-117.188;2023-02-15T12:01:37;99457.94;;;4.49;77.08
37848;BME280;23688;33.130;-117.188;2023-02-15T12:04:19;99445.09;;;4.49;74.98
37848;BME280;23688;33.130;-117.188;2023-02-15T12:10:03;99455.66;;;4.67;74.87
37848;BME280;23688;33.130;-117.188;2023-02-15T12:12:35;99456.34;;;4.65;77.41
37848;BME280;23688;33.130;-117.188;2023-02-15T12:15:05;99459.31;;;4.58;77.09
37848;BME280;23688;33.130;-117.188;2023-02-15T12:17:52;99449.44;;;4.50;77.32
37848;BME280;23688;33.130;-117.188;2023-02-15T12:20:21;99462.78;;;4.45;77.99
37848;BME280;23688;33.130;-117.188;2023-02-15T12:22:55;99467.25;;;4.34;76.66
37848;BME280;23688;33.130;-117.188;2023-02-15T12:25:37;99481.06;;;4.36;74.74
37848;BME280;23688;33.130;-117.188;2023-02-15T12:28:36;99470.88;;;4.38;74.13
37848;BME280;23688;33.130;-117.188;2023-02-15T12:31:10;99462.19;;;4.36;73.71
37848;BME280;23688;33.130;-117.188;2023-02-15T12:33:45;99468.44;;;4.39;73.48
37848;BME280;23688;33.130;-117.188;2023-02-15T12:36:21;99480.88;;;4.46;76.71
37848;BME280;23688;33.130;-117.188;2023-02-15T12:39:27;99472.84;;;4.28;75.13
37848;BME280;23688;33.130;-117.188;2023-02-15T12:44:22;99485.09;;;4.19;74.70
37848;BME280;23688;33.130;-117.188;2023-02-15T12:47:02;99474.16;;;4.22;72.22
37848;BME280;23688;33.130;-117.188;2023-02-15T12:49:36;99479.28;;;4.22;72.36
37848;BME280;23688;33.130;-117.188;2023-02-15T12:54:46;99478.38;;;4.21;73.18
37848;BME280;23688;33.130;-117.188;2023-02-15T12:57:22;99485.00;;;4.18;73.35
37848;BME280;23688;33.130;-117.188;2023-02-15T12:59:53;99458.59;;;4.07;72.23
37848;BME280;23688;33.130;-117.188;2023-02-15T13:02:43;99494.78;;;4.23;72.69
37848;BME280;23688;33.130;-117.188;2023-02-15T13:07:58;99529.19;;;4.25;75.95
37848;BME280;23688;33.130;-117.188;2023-02-15T13:10:33;99547.28;;;4.27;77.41
37848;BME280;23688;33.130;-117.188;2023-02-15T13:13:01;99545.09;;;4.20;78.64
37848;BME280;23688;33.130;-117.188;2023-02-15T13:15:40;99526.97;;;4.05;78.97
37848;BME280;23688;33.130;-117.188;2023-02-15T13:18:14;99539.22;;;4.09;79.33
37848;BME280;23688;33.130;-117.188;2023-02-15T13:20:43;99564.16;;;4.10;77.79
37848;BME280;23688;33.130;-117.188;2023-02-15T13:23:29;99561.94;;;4.03;78.00
37848;BME280;23688;33.130;-117.188;2023-02-15T13:25:59;99571.03;;;3.98;78.64
37848;BME280;23688;33.130;-117.188;2023-02-15T13:28:53;99577.59;;;3.94;79.23
37848;BME280;23688;33.130;-117.188;2023-02-15T13:31:23;99571.84;;;3.85;77.53
37848;BME280;23688;33.130;-117.188;2023-02-15T13:33:55;99589.25;;;3.89;79.33
37848;BME280;23688;33.130;-117.188;2023-02-15T13:36:30;99569.75;;;3.79;79.11
37848;BME280;23688;33.130;-117.188;2023-02-15T13:41:45;99583.75;;;3.71;77.81
37848;BME280;23688;33.130;-117.188;2023-02-15T13:44:37;99596.09;;;3.77;78.47
37848;BME280;23688;33.130;-117.188;2023-02-15T13:47:16;99617.22;;;3.73;79.65
37848;BME280;23688;33.130;-117.188;2023-02-15T13:57:59;99602.63;;;3.60;76.49
37848;BME280;23688;33.130;-117.188;2023-02-15T14:00:42;99601.94;;;3.62;76.02
37848;BME280;23688;33.130;-117.188;2023-02-15T14:03:40;99598.91;;;3.68;73.68
37848;BME280;23688;33.130;-117.188;2023-02-15T14:12:38;99617.53;;;3.77;73.84
37848;BME280;23688;33.130;-117.188;2023-02-15T14:21:06;99628.25;;;3.83;74.54
37848;BME280;23688;33.130;-117.188;2023-02-15T14:24:40;99632.38;;;3.81;75.39
37848;BME280;23688;33.130;-117.188;2023-02-15T14:26:56;99648.13;;;3.74;75.55
37848;BME280;23688;33.130;-117.188;2023-02-15T14:34:59;99665.66;;;3.68;76.74
37848;BME280;23688;33.130;-117.188;2023-02-15T14:40:48;99681.44;;;3.61;69.77
37848;BME280;23688;33.130;-117.188;2023-02-15T14:46:42;99692.59;;;3.73;73.01
37848;BME280;23688;33.130;-117.188;2023-02-15T14:49:27;99706.31;;;3.74;69.69
37848;BME280;23688;33.130;-117.188;2023-02-15T14:51:59;99707.19;;;3.74;70.85
37848;BME280;23688;33.130;-117.188;2023-02-15T15:04:42;99724.13;;;3.96;65.04
37848;BME280;23688;33.130;-117.188;2023-02-15T15:07:18;99748.69;;;4.04;62.05
37848;BME280;23688;33.130;-117.188;2023-02-15T15:10:33;99760.50;;;4.14;63.78